• Join FlightAware (Why Join?)
  • Login
  • US Flag 
04:10AM EDT


 

Airport Tracker/Info


-or-


 

Live Flight TrackerFlight Track Log ✈ AAY800 ✈ 26-Apr-2014 ✈ KPIE - KTOL

Flight Track Log - Related Links

Times and Time Zones

All times are in EDT time to prevent confusion due to time zone crossing. See the AAY800 flight status page for this flight to view local times or setup timezone preferences in your user account.

Time Position Orientation Groundspeed Altitude Reporting Facility
EDT Latitude Longitude Course Direction KTS MPH feet Rate Location/Type
09:21AM 27.9167 -82.6833 360° North 168 193 700  Level Tampa TRACON
09:22AM 27.9667 -82.6833 360° North 201 231 2,200 1,980 Climbing Tampa TRACON
09:24AM 28.0500 -82.6667 10° North 275 316 5,000 2,580 Climbing Tampa TRACON
09:26AM 28.2167 -82.6900 353° North 277 319 11,200 2,280 Climbing Jacksonville Center
09:27AM 28.3042 -82.6969 356° North 289 333 12,700 1,920 Climbing Jacksonville Center
09:28AM 28.4022 -82.7086 354° North 323 372 15,100 1,920 Climbing Jacksonville Center
09:34AM 29.0532 -82.7812 354° North 412 474 26,400 1,800 Climbing FlightAware ADS-B (KMCO)
09:34AM 29.1226 -82.7895 354° North 418 481 27,200 1,200 Climbing FlightAware ADS-B (KMCO)
09:35AM 29.2086 -82.7997 354° North 423 487 28,100 1,200 Climbing FlightAware ADS-B (KMCO)
09:39AM 29.6752 -82.8448 356° North 431 496 32,800 1,140 Climbing FlightAware ADS-B (KMCO)
09:40AM 29.7669 -82.8522 356° North 429 494 33,600 720 Climbing FlightAware ADS-B (KMCO)
09:41AM 29.8853 -82.8600 357° North 424 488 34,100 660 Climbing FlightAware ADS-B (KMCO)
09:42AM 29.9274 -82.8617 359° North 427 491 34,700 900 Climbing FlightAware ADS-B (KMCO)
09:42AM 30.0365 -82.8398 10° North 436 502 35,300 840 Climbing FlightAware ADS-B (KMCO)
09:44AM 30.2317 -82.7978 11° North 431 496 36,800 720 Climbing FlightAware ADS-B (KMCO)
09:44AM 30.3117 -82.7802 11° North 425 489 37,000 120 Climbing FlightAware ADS-B (KMCO)
09:45AM 30.3971 -82.7614 11° North 419 482 37,000  Level FlightAware ADS-B (KMCO)
09:46AM 30.4719 -82.7449 11° North 420 483 37,000  Level FlightAware ADS-B (KMCO)
09:47AM 30.5842 -82.7202 11° North 420 483 37,000  Level FlightAware ADS-B (KMCO)
09:47AM 30.6366 -82.7086 11° North 421 484 37,000  Level FlightAware ADS-B (KMCO)
09:48AM 30.7041 -82.6938 11° North 421 484 37,000  Level FlightAware ADS-B (KMCO)
09:48AM 30.7584 -82.6818 11° North 423 487 37,000  Level FlightAware ADS-B (KMCO)
09:50AM 30.9281 -82.6456 11° North 421 484 37,000  Level Jacksonville Center
09:51AM 31.0431 -82.6283 North 416 479 37,000  Level Jacksonville Center
09:52AM 31.1578 -82.6111 North 410 472 37,000  Level Jacksonville Center
09:53AM 31.2725 -82.5911 North 410 472 37,000  Level Jacksonville Center
09:54AM 31.3872 -82.5689 North 410 472 37,000  Level Jacksonville Center
09:56AM 31.6642 -82.5236 North 414 476 37,000  Level Atlanta Center
09:57AM 31.7683 -82.5072 North 414 476 37,000  Level Atlanta Center
09:58AM 31.9078 -82.4806 North 414 476 37,000  Level Atlanta Center
09:59AM 32.0203 -82.4614 North 414 476 37,000  Level Atlanta Center
10:00AM 32.1369 -82.4419 North 414 476 37,000  Level Atlanta Center
10:01AM 32.2286 -82.4256 North 414 476 37,000  Level Atlanta Center
10:02AM 32.3494 -82.4039 North 414 476 37,000  Level Atlanta Center
10:03AM 32.4661 -82.3819 North 407 468 37,000  Level Atlanta Center
10:04AM 32.5908 -82.3600 North 407 468 37,000  Level Atlanta Center
10:05AM 32.7056 -82.3428 North 407 468 37,000  Level Atlanta Center
10:06AM 32.8181 -82.3233 North 407 468 37,000  Level Atlanta Center
10:07AM 32.9325 -82.3039 North 407 468 37,000  Level Atlanta Center
10:08AM 33.0450 -82.2844 North 412 474 37,000  Level Atlanta Center
10:09AM 33.1572 -82.2647 North 407 468 37,000  Level Atlanta Center
10:10AM 33.2761 -82.2425 North 412 474 37,000  Level Atlanta Center
10:16AM 33.9492 -82.1238 North 419 482 37,000  Level FlightAware ADS-B (KCDN)
10:17AM 34.0778 -82.1009 North 419 482 37,000  Level FlightAware ADS-B (KCDN)
10:21AM 34.4613 -82.0317 North 408 470 37,000  Level FlightAware ADS-B (KCDN)
10:22AM 34.6859 -81.9910 North 404 465 37,000  Level FlightAware ADS-B (KDZJ)
10:23AM 34.7595 -81.9776 North 406 467 37,000  Level FlightAware ADS-B (KDZJ)
10:24AM 34.7867 -81.9726 North 406 467 37,000  Level FlightAware ADS-B (KCDN)
10:24AM 34.8547 -81.9601 North 406 467 37,000  Level FlightAware ADS-B (KCDN)
10:25AM 35.0235 -81.9318 North 389 448 37,000  Level FlightAware ADS-B (KDZJ)
10:25AM 35.0735 -81.9323 356° North 388 447 37,000  Level FlightAware ADS-B (KDZJ)
10:27AM 35.2340 -81.9516 354° North 375 432 37,000  Level FlightAware ADS-B (KDZJ)
10:28AM 35.3005 -81.9597 354° North 375 432 37,000  Level FlightAware ADS-B (KDZJ)
10:30AM 35.5782 -81.9936 354° North 373 429 37,000  Level FlightAware ADS-B (KDZJ)
10:31AM 35.7115 -82.0099 354° North 371 427 37,000  Level FlightAware ADS-B (KDZJ)
10:32AM 35.7211 -82.0111 354° North 382 440 37,000  Level Indianapolis Center
10:33AM 35.8247 -82.0250 354° North 373 429 37,000  Level Indianapolis Center
10:34AM 35.9397 -82.0433 353° North 387 445 37,000  Level Atlanta Center
10:35AM 36.0464 -82.0536 356° North 387 445 37,000  Level Atlanta Center
10:36AM 36.1589 -82.0456 North 387 445 37,000  Level Atlanta Center
10:37AM 36.2608 -82.0356 North 382 440 37,000  Level Atlanta Center
10:38AM 36.3669 -82.0225 North 382 440 37,000  Level Atlanta Center
10:39AM 36.4756 -82.0172 North 387 445 37,000  Level Atlanta Center
10:42AM 36.6939 -82.0508 353° North 378 435 37,000  Level Indianapolis Center
10:43AM 36.7986 -82.0656 354° North 378 435 37,000  Level Indianapolis Center
10:44AM 36.9219 -82.0836 353° North 379 436 37,000  Level Indianapolis Center
10:45AM 37.0264 -82.1003 353° North 379 436 37,000  Level Indianapolis Center
10:46AM 37.1306 -82.1153 353° North 379 436 37,000  Level Indianapolis Center
10:47AM 37.2336 -82.1303 353° North 378 435 37,000  Level Indianapolis Center
10:48AM 37.3358 -82.1461 353° North 375 432 37,000  Level Indianapolis Center
10:49AM 37.4375 -82.1614 353° North 371 427 37,000  Level Indianapolis Center
10:50AM 37.5578 -82.1803 353° North 371 427 37,000  Level Indianapolis Center
10:51AM 37.6633 -82.1961 353° North 376 433 37,000  Level Indianapolis Center
10:52AM 37.7683 -82.2119 353° North 377 434 37,000  Level Indianapolis Center
10:53AM 37.8731 -82.2283 353° North 377 434 37,000  Level Indianapolis Center
10:54AM 37.9775 -82.2444 353° North 377 434 37,000  Level Indianapolis Center
10:55AM 38.0836 -82.2600 353° North 378 435 37,000  Level Indianapolis Center
10:56AM 38.2019 -82.2772 353° North 380 437 37,000  Level Indianapolis Center
11:02AM 38.8323 -82.3770 353° North 392 451 37,000 -60 Level FlightAware ADS-B (KPMH)
11:03AM 38.9138 -82.3898 353° North 388 447 36,800 -600 Descending FlightAware ADS-B (KPMH)
11:03AM 38.9766 -82.4000 353° North 390 449 36,200 -960 Descending FlightAware ADS-B (KPMH)
11:04AM 39.0374 -82.4097 353° North 382 440 35,700 -960 Descending FlightAware ADS-B (KPMH)
11:04AM 39.0895 -82.4176 353° North 377 434 35,200 -960 Descending FlightAware ADS-B (KPMH)
11:05AM 39.1584 -82.4285 353° North 370 426 34,600 -960 Descending FlightAware ADS-B (KPMH)
11:05AM 39.2136 -82.4373 353° North 367 422 34,100 -900 Descending FlightAware ADS-B (KPMH)
11:06AM 39.2630 -82.4454 353° North 370 426 33,700 -720 Descending FlightAware ADS-B (KPMH)
11:07AM 39.3330 -82.4568 353° North 376 433 33,300 -600 Descending FlightAware ADS-B (KPMH)
11:07AM 39.3945 -82.4667 353° North 379 436 33,000 -480 Descending FlightAware ADS-B (KPMH)
11:08AM 39.4562 -82.4766 353° North 381 438 32,700 -540 Descending FlightAware ADS-B (KPMH)
11:08AM 39.5208 -82.4870 353° North 379 436 32,400 -540 Descending FlightAware ADS-B (KPMH)
11:09AM 39.5850 -82.4971 353° North 375 432 32,100 -840 Descending FlightAware ADS-B (KPMH)
11:10AM 39.6357 -82.5050 353° North 371 427 31,400 -1,560 Descending FlightAware ADS-B (KPMH)
11:11AM 39.7768 -82.5281 353° North 383 441 29,300 -1,680 Descending FlightAware ADS-B (KPMH)
11:11AM 39.8317 -82.5367 353° North 377 434 28,400 -1,560 Descending Indianapolis Center
11:12AM 39.9375 -82.5531 353° North 385 443 26,800 -1,620 Descending Indianapolis Center
11:13AM 40.0333 -82.5700 352° North 360 414 25,100 -1,620 Descending Indianapolis Center
11:14AM 40.1222 -82.5864 352° North 335 386 23,600 -1,500 Descending Indianapolis Center
11:16AM 40.2008 -82.6278 338° Northwest 311 358 22,100 -1,560 Descending Indianapolis Center
11:17AM 40.2786 -82.6894 329° Northwest 306 352 20,500 -1,080 Descending Indianapolis Center
11:18AM 40.3500 -82.7467 329° Northwest 303 349 20,000 -300 Descending Indianapolis Center
11:19AM 40.4314 -82.8114 329° Northwest 305 351 20,000  Level Indianapolis Center
11:20AM 40.5072 -82.8711 329° Northwest 311 358 20,000  Level Indianapolis Center
11:21AM 40.5794 -82.9297 328° Northwest 317 365 20,000 -60 Level Indianapolis Center
11:22AM 40.6697 -83.0031 328° Northwest 319 367 19,900 -300 Descending Indianapolis Center
11:23AM 40.7478 -83.0644 329° Northwest 320 368 19,400 -540 Descending Indianapolis Center
11:24AM 40.8253 -83.1267 329° Northwest 321 369 18,800 -1,260 Descending Indianapolis Center
11:25AM 40.9008 -83.1883 328° Northwest 320 368 16,900 -1,920 Descending Indianapolis Center
11:26AM 40.9758 -83.2492 329° Northwest 317 365 14,900 -1,920 Descending Indianapolis Center
11:27AM 41.0483 -83.3078 329° Northwest 307 353 13,000 -1,800 Descending Indianapolis Center
11:28AM 41.1178 -83.3647 328° Northwest 295 339 11,200 -1,260 Descending Indianapolis Center
11:29AM 41.1906 -83.3897 346° North 272 313 10,500 -1,080 Descending Indianapolis Center
11:30AM 41.2511 -83.4322 332° Northwest 247 284 9,000 -1,500 Descending Indianapolis Center
11:31AM 41.3222 -83.4828 332° Northwest 237 273 7,200 -1,500 Descending Cleveland Center
11:32AM 41.3803 -83.5222 333° Northwest 236 272 5,700 -1,500 Descending Cleveland Center
11:33AM 41.4383 -83.5625 333° Northwest 236 272 4,200 -1,320 Descending Cleveland Center
11:34AM 41.4944 -83.6019 332° Northwest 234 269 3,100 -900 Descending Cleveland Center
11:35AM 41.5458 -83.6403 331° Northwest 224 258 2,400 -360 Descending Cleveland Center
11:36AM 41.5875 -83.6681 333° Northwest 194 223 2,400 -120 Level Cleveland Center
11:37AM 41.6164 -83.7022 319° Northwest 169 194 2,200 -420 Descending Cleveland Center
11:38AM 41.6058 -83.7544 255° West 150 173 1,600 -600 Descending Cleveland Center